sensor_id;sensor_type;location;lat;lon;timestamp;pressure;altitude;pressure_sealevel;temperature;humidity
76086;BME280;64791;0.000;0.000;2023-12-14T00:01:43;92806.47;;;3.87;70.03
76086;BME280;64791;0.000;0.000;2023-12-14T00:04:11;92833.22;;;3.88;70.65
76086;BME280;64791;0.000;0.000;2023-12-14T00:06:36;92811.00;;;3.84;70.96
76086;BME280;64791;0.000;0.000;2023-12-14T00:09:02;92839.53;;;3.83;70.77
76086;BME280;64791;0.000;0.000;2023-12-14T00:11:27;92851.69;;;3.82;70.81
76086;BME280;64791;0.000;0.000;2023-12-14T00:13:53;92823.31;;;4.19;71.27
76086;BME280;64791;0.000;0.000;2023-12-14T00:16:19;92838.69;;;4.50;70.14
76086;BME280;64791;0.000;0.000;2023-12-14T00:18:44;92811.28;;;4.84;69.06
76086;BME280;64791;0.000;0.000;2023-12-14T00:21:10;92833.84;;;5.12;68.29
76086;BME280;64791;0.000;0.000;2023-12-14T00:23:36;92854.22;;;5.40;67.48
76086;BME280;64791;0.000;0.000;2023-12-14T00:26:05;92811.13;;;5.61;66.73
76086;BME280;64791;0.000;0.000;2023-12-14T00:28:31;92819.19;;;5.74;66.56
76086;BME280;64791;0.000;0.000;2023-12-14T00:30:56;92866.44;;;5.82;65.76
76086;BME280;64791;0.000;0.000;2023-12-14T00:33:22;92814.13;;;6.01;65.38
76086;BME280;64791;0.000;0.000;2023-12-14T00:35:48;92817.63;;;6.16;65.00
76086;BME280;64791;0.000;0.000;2023-12-14T00:38:14;92847.41;;;6.27;64.97
76086;BME280;64791;0.000;0.000;2023-12-14T00:40:40;92793.38;;;6.35;64.66
76086;BME280;64791;0.000;0.000;2023-12-14T00:43:05;92830.06;;;6.40;64.56
76086;BME280;64791;0.000;0.000;2023-12-14T00:45:31;92837.38;;;6.52;64.22
76086;BME280;64791;0.000;0.000;2023-12-14T00:47:56;92822.97;;;6.59;64.09
76086;BME280;64791;0.000;0.000;2023-12-14T00:50:22;92826.97;;;6.66;63.91
76086;BME280;64791;0.000;0.000;2023-12-14T00:52:47;92812.91;;;6.77;63.53
76086;BME280;64791;0.000;0.000;2023-12-14T00:55:13;92822.59;;;6.86;63.38
76086;BME280;64791;0.000;0.000;2023-12-14T00:57:39;92811.59;;;6.93;63.19
76086;BME280;64791;0.000;0.000;2023-12-14T01:00:05;92822.97;;;6.74;63.06
76086;BME280;64791;0.000;0.000;2023-12-14T01:02:31;92819.84;;;6.55;63.13
76086;BME280;64791;0.000;0.000;2023-12-14T01:04:57;92838.66;;;6.36;64.18
76086;BME280;64791;0.000;0.000;2023-12-14T01:07:22;92834.25;;;6.18;64.52
76086;BME280;64791;0.000;0.000;2023-12-14T01:09:48;92822.75;;;6.12;64.56
76086;BME280;64791;0.000;0.000;2023-12-14T01:12:14;92842.97;;;6.02;64.84
76086;BME280;64791;0.000;0.000;2023-12-14T01:14:40;92841.13;;;5.89;65.04
76086;BME280;64791;0.000;0.000;2023-12-14T01:17:06;92841.78;;;5.74;65.12
76086;BME280;64791;0.000;0.000;2023-12-14T01:19:31;92835.38;;;5.64;65.64
76086;BME280;64791;0.000;0.000;2023-12-14T01:21:57;92812.56;;;5.62;65.69
76086;BME280;64791;0.000;0.000;2023-12-14T01:24:23;92814.03;;;5.63;65.49
76086;BME280;64791;0.000;0.000;2023-12-14T01:26:48;92832.63;;;5.57;65.84
76086;BME280;64791;0.000;0.000;2023-12-14T01:29:13;92821.44;;;5.47;65.90
76086;BME280;64791;0.000;0.000;2023-12-14T01:31:39;92814.50;;;5.39;66.47
76086;BME280;64791;0.000;0.000;2023-12-14T01:34:05;92844.19;;;5.42;66.05
76086;BME280;64791;0.000;0.000;2023-12-14T01:36:31;92822.00;;;5.46;66.31
76086;BME280;64791;0.000;0.000;2023-12-14T01:38:57;92825.78;;;5.35;66.11
76086;BME280;64791;0.000;0.000;2023-12-14T01:41:22;92842.38;;;5.37;66.25
76086;BME280;64791;0.000;0.000;2023-12-14T01:43:48;92818.66;;;5.32;66.23
76086;BME280;64791;0.000;0.000;2023-12-14T01:46:14;92817.91;;;5.32;66.74
76086;BME280;64791;0.000;0.000;2023-12-14T01:48:41;92823.19;;;5.30;66.05
76086;BME280;64791;0.000;0.000;2023-12-14T01:51:07;92827.91;;;5.22;66.34
76086;BME280;64791;0.000;0.000;2023-12-14T01:53:33;92812.38;;;5.16;66.54
76086;BME280;64791;0.000;0.000;2023-12-14T01:55:59;92801.97;;;5.07;66.97
76086;BME280;64791;0.000;0.000;2023-12-14T01:58:25;92809.41;;;5.07;67.18
76086;BME280;64791;0.000;0.000;2023-12-14T02:01:02;92813.56;;;5.00;67.21
76086;BME280;64791;0.000;0.000;2023-12-14T02:03:29;92798.78;;;4.96;67.25
76086;BME280;64791;0.000;0.000;2023-12-14T02:05:55;92819.38;;;4.97;67.33
76086;BME280;64791;0.000;0.000;2023-12-14T02:08:21;92821.97;;;5.02;67.05
76086;BME280;64791;0.000;0.000;2023-12-14T02:10:46;92811.91;;;4.97;67.34
76086;BME280;64791;0.000;0.000;2023-12-14T02:13:13;92807.78;;;4.83;67.77
76086;BME280;64791;0.000;0.000;2023-12-14T02:15:39;92810.81;;;4.72;67.98
76086;BME280;64791;0.000;0.000;2023-12-14T02:18:04;92803.69;;;4.69;67.83
76086;BME280;64791;0.000;0.000;2023-12-14T02:20:30;92796.78;;;4.68;67.92
76086;BME280;64791;0.000;0.000;2023-12-14T02:22:56;92781.44;;;4.65;68.46
76086;BME280;64791;0.000;0.000;2023-12-14T02:25:22;92794.91;;;4.63;68.21
76086;BME280;64791;0.000;0.000;2023-12-14T02:27:48;92769.47;;;4.68;67.97
76086;BME280;64791;0.000;0.000;2023-12-14T02:30:15;92770.22;;;4.69;67.66
76086;BME280;64791;0.000;0.000;2023-12-14T02:32:41;92783.16;;;4.76;67.93
76086;BME280;64791;0.000;0.000;2023-12-14T02:35:07;92789.22;;;4.82;67.51
76086;BME280;64791;0.000;0.000;2023-12-14T02:37:33;92779.91;;;4.77;67.34
76086;BME280;64791;0.000;0.000;2023-12-14T02:39:59;92783.34;;;4.78;67.79
76086;BME280;64791;0.000;0.000;2023-12-14T02:42:26;92801.94;;;4.79;67.83
76086;BME280;64791;0.000;0.000;2023-12-14T02:44:53;92798.84;;;4.75;67.83
76086;BME280;64791;0.000;0.000;2023-12-14T02:47:18;92772.00;;;4.66;67.91
76086;BME280;64791;0.000;0.000;2023-12-14T02:49:44;92788.72;;;4.63;68.31
76086;BME280;64791;0.000;0.000;2023-12-14T02:52:10;92781.97;;;4.56;68.45
76086;BME280;64791;0.000;0.000;2023-12-14T02:54:38;92776.69;;;4.58;68.69
76086;BME280;64791;0.000;0.000;2023-12-14T02:57:03;92787.00;;;4.52;68.94
76086;BME280;64791;0.000;0.000;2023-12-14T02:59:29;92799.00;;;4.49;68.62
76086;BME280;64791;0.000;0.000;2023-12-14T03:01:55;92797.69;;;4.42;68.91
76086;BME280;64791;0.000;0.000;2023-12-14T03:04:21;92762.75;;;4.41;68.95
76086;BME280;64791;0.000;0.000;2023-12-14T03:06:47;92787.31;;;4.41;69.09
76086;BME280;64791;0.000;0.000;2023-12-14T03:09:13;92818.78;;;4.42;69.11
76086;BME280;64791;0.000;0.000;2023-12-14T03:11:38;92782.91;;;4.38;69.08
76086;BME280;64791;0.000;0.000;2023-12-14T03:14:04;92824.41;;;4.36;68.95
76086;BME280;64791;0.000;0.000;2023-12-14T03:16:29;92815.66;;;4.38;69.33
76086;BME280;64791;0.000;0.000;2023-12-14T03:18:55;92775.59;;;4.33;69.04
76086;BME280;64791;0.000;0.000;2023-12-14T03:21:22;92810.13;;;4.30;69.33
76086;BME280;64791;0.000;0.000;2023-12-14T03:23:47;92781.94;;;4.28;69.28
76086;BME280;64791;0.000;0.000;2023-12-14T03:26:13;92791.25;;;4.32;68.94
76086;BME280;64791;0.000;0.000;2023-12-14T03:28:39;92762.28;;;4.29;69.13
76086;BME280;64791;0.000;0.000;2023-12-14T03:31:05;92788.31;;;4.30;69.07
76086;BME280;64791;0.000;0.000;2023-12-14T03:33:31;92785.91;;;4.27;69.16
76086;BME280;64791;0.000;0.000;2023-12-14T03:35:56;92781.53;;;4.24;69.44
76086;BME280;64791;0.000;0.000;2023-12-14T03:38:22;92800.97;;;4.20;69.54
76086;BME280;64791;0.000;0.000;2023-12-14T03:40:49;92796.03;;;4.19;69.55
76086;BME280;64791;0.000;0.000;2023-12-14T03:43:15;92795.31;;;4.18;69.79
76086;BME280;64791;0.000;0.000;2023-12-14T03:45:41;92756.53;;;4.12;69.90
76086;BME280;64791;0.000;0.000;2023-12-14T03:48:06;92767.44;;;4.12;69.64
76086;BME280;64791;0.000;0.000;2023-12-14T03:50:32;92795.31;;;4.18;69.56
76086;BME280;64791;0.000;0.000;2023-12-14T03:52:59;92770.75;;;4.18;69.77
76086;BME280;64791;0.000;0.000;2023-12-14T03:55:24;92759.25;;;4.12;69.71
76086;BME280;64791;0.000;0.000;2023-12-14T03:57:50;92797.25;;;4.10;70.29
76086;BME280;64791;0.000;0.000;2023-12-14T04:00:16;92805.44;;;4.10;70.46
76086;BME280;64791;0.000;0.000;2023-12-14T04:02:41;92747.78;;;4.14;70.06
76086;BME280;64791;0.000;0.000;2023-12-14T04:05:07;92766.31;;;4.08;70.09
76086;BME280;64791;0.000;0.000;2023-12-14T04:07:36;92787.59;;;4.09;70.30
76086;BME280;64791;0.000;0.000;2023-12-14T04:10:14;92762.53;;;4.11;70.05
76086;BME280;64791;0.000;0.000;2023-12-14T04:12:40;92747.94;;;4.08;70.00
76086;BME280;64791;0.000;0.000;2023-12-14T04:15:06;92752.66;;;4.08;69.84
76086;BME280;64791;0.000;0.000;2023-12-14T04:17:32;92760.09;;;4.07;69.86
76086;BME280;64791;0.000;0.000;2023-12-14T04:19:57;92778.06;;;4.03;70.12
76086;BME280;64791;0.000;0.000;2023-12-14T04:22:23;92758.97;;;4.03;70.15
76086;BME280;64791;0.000;0.000;2023-12-14T04:24:52;92805.03;;;4.06;69.85
76086;BME280;64791;0.000;0.000;2023-12-14T04:27:18;92782.47;;;4.06;69.81
76086;BME280;64791;0.000;0.000;2023-12-14T04:29:44;92806.63;;;4.02;70.19
76086;BME280;64791;0.000;0.000;2023-12-14T04:32:10;92796.03;;;3.98;70.48
76086;BME280;64791;0.000;0.000;2023-12-14T04:34:36;92806.75;;;3.96;70.58
76086;BME280;64791;0.000;0.000;2023-12-14T04:37:02;92790.06;;;4.00;70.89
76086;BME280;64791;0.000;0.000;2023-12-14T04:39:28;92790.63;;;4.26;71.33
76086;BME280;64791;0.000;0.000;2023-12-14T04:41:53;92799.44;;;4.61;70.70
76086;BME280;64791;0.000;0.000;2023-12-14T04:44:20;92798.06;;;4.95;69.21
76086;BME280;64791;0.000;0.000;2023-12-14T04:46:47;92793.28;;;5.24;67.96
76086;BME280;64791;0.000;0.000;2023-12-14T04:49:13;92793.75;;;5.51;67.32
76086;BME280;64791;0.000;0.000;2023-12-14T04:51:38;92776.88;;;5.67;66.88
76086;BME280;64791;0.000;0.000;2023-12-14T04:54:04;92753.53;;;5.81;66.48
76086;BME280;64791;0.000;0.000;2023-12-14T04:56:30;92780.56;;;5.85;66.16
76086;BME280;64791;0.000;0.000;2023-12-14T04:58:56;92778.59;;;6.08;66.08
76086;BME280;64791;0.000;0.000;2023-12-14T05:01:22;92776.38;;;6.22;65.31
76086;BME280;64791;0.000;0.000;2023-12-14T05:03:47;92791.00;;;6.39;65.26
76086;BME280;64791;0.000;0.000;2023-12-14T05:06:13;92796.13;;;6.50;64.57
76086;BME280;64791;0.000;0.000;2023-12-14T05:08:38;92768.91;;;6.52;64.52
76086;BME280;64791;0.000;0.000;2023-12-14T05:11:04;92793.38;;;6.58;64.77
76086;BME280;64791;0.000;0.000;2023-12-14T05:13:30;92802.31;;;6.66;64.64
76086;BME280;64791;0.000;0.000;2023-12-14T05:15:55;92778.19;;;6.80;63.73
76086;BME280;64791;0.000;0.000;2023-12-14T05:18:23;92776.56;;;6.61;64.07
76086;BME280;64791;0.000;0.000;2023-12-14T05:20:49;92780.59;;;6.38;64.71
76086;BME280;64791;0.000;0.000;2023-12-14T05:23:15;92736.41;;;6.26;64.36
76086;BME280;64791;0.000;0.000;2023-12-14T05:25:41;92783.72;;;6.19;64.85
76086;BME280;64791;0.000;0.000;2023-12-14T05:28:07;92749.75;;;6.07;65.05
76086;BME280;64791;0.000;0.000;2023-12-14T05:30:33;92791.13;;;5.96;65.56
76086;BME280;64791;0.000;0.000;2023-12-14T05:32:59;92774.72;;;5.88;65.60
76086;BME280;64791;0.000;0.000;2023-12-14T05:35:24;92792.75;;;5.84;66.11
76086;BME280;64791;0.000;0.000;2023-12-14T05:37:50;92788.19;;;5.79;65.92
76086;BME280;64791;0.000;0.000;2023-12-14T05:40:16;92749.31;;;5.65;66.25
76086;BME280;64791;0.000;0.000;2023-12-14T05:42:42;92801.06;;;5.56;66.82
76086;BME280;64791;0.000;0.000;2023-12-14T05:45:08;92821.69;;;5.57;66.83
76086;BME280;64791;0.000;0.000;2023-12-14T05:47:34;92800.69;;;5.44;67.08
76086;BME280;64791;0.000;0.000;2023-12-14T05:50:00;92808.28;;;5.38;67.13
76086;BME280;64791;0.000;0.000;2023-12-14T05:52:26;92794.03;;;5.25;67.58
76086;BME280;64791;0.000;0.000;2023-12-14T05:54:51;92814.03;;;5.19;68.11
76086;BME280;64791;0.000;0.000;2023-12-14T05:57:17;92808.56;;;5.19;67.52
76086;BME280;64791;0.000;0.000;2023-12-14T05:59:43;92785.91;;;5.04;68.08
76086;BME280;64791;0.000;0.000;2023-12-14T06:02:08;92805.03;;;5.04;67.99
76086;BME280;64791;0.000;0.000;2023-12-14T06:04:34;92805.22;;;5.06;67.99
76086;BME280;64791;0.000;0.000;2023-12-14T06:07:00;92792.97;;;4.99;68.33
76086;BME280;64791;0.000;0.000;2023-12-14T06:09:25;92804.06;;;4.94;68.02
76086;BME280;64791;0.000;0.000;2023-12-14T06:12:01;92815.06;;;4.81;68.61
76086;BME280;64791;0.000;0.000;2023-12-14T06:14:27;92819.19;;;4.74;68.78
76086;BME280;64791;0.000;0.000;2023-12-14T06:16:53;92824.41;;;4.85;68.69
76086;BME280;64791;0.000;0.000;2023-12-14T06:19:18;92820.31;;;4.79;68.81
76086;BME280;64791;0.000;0.000;2023-12-14T06:21:44;92798.75;;;4.88;68.20
76086;BME280;64791;0.000;0.000;2023-12-14T06:24:10;92829.31;;;4.87;68.62
76086;BME280;64791;0.000;0.000;2023-12-14T06:26:45;92820.19;;;4.84;68.51
76086;BME280;64791;0.000;0.000;2023-12-14T06:29:11;92847.09;;;4.80;68.86
76086;BME280;64791;0.000;0.000;2023-12-14T06:31:37;92851.72;;;4.85;68.66
76086;BME280;64791;0.000;0.000;2023-12-14T06:34:03;92841.13;;;4.82;69.09
76086;BME280;64791;0.000;0.000;2023-12-14T06:36:41;92857.31;;;4.80;69.04
76086;BME280;64791;0.000;0.000;2023-12-14T06:39:07;92836.66;;;4.92;69.10
76086;BME280;64791;0.000;0.000;2023-12-14T06:41:33;92846.72;;;4.97;68.64
76086;BME280;64791;0.000;0.000;2023-12-14T06:43:59;92868.06;;;5.06;68.10
76086;BME280;64791;0.000;0.000;2023-12-14T06:46:24;92845.75;;;5.23;67.87
76086;BME280;64791;0.000;0.000;2023-12-14T06:48:50;92847.94;;;5.24;67.65
76086;BME280;64791;0.000;0.000;2023-12-14T06:51:16;92863.50;;;5.37;67.72
76086;BME280;64791;0.000;0.000;2023-12-14T06:53:43;92861.69;;;5.39;67.70
76086;BME280;64791;0.000;0.000;2023-12-14T06:56:09;92868.84;;;5.50;67.52
76086;BME280;64791;0.000;0.000;2023-12-14T06:58:39;92877.25;;;5.52;67.38
76086;BME280;64791;0.000;0.000;2023-12-14T07:01:06;92884.38;;;5.55;66.98
76086;BME280;64791;0.000;0.000;2023-12-14T07:03:32;92879.50;;;5.61;66.79
76086;BME280;64791;0.000;0.000;2023-12-14T07:05:58;92868.44;;;5.74;66.82
76086;BME280;64791;0.000;0.000;2023-12-14T07:08:24;92870.84;;;5.85;66.37
76086;BME280;64791;0.000;0.000;2023-12-14T07:10:50;92865.56;;;5.87;66.19
76086;BME280;64791;0.000;0.000;2023-12-14T07:13:15;92852.38;;;5.78;66.22
76086;BME280;64791;0.000;0.000;2023-12-14T07:15:41;92862.78;;;5.79;66.92
76086;BME280;64791;0.000;0.000;2023-12-14T07:18:07;92854.25;;;5.90;66.80
76086;BME280;64791;0.000;0.000;2023-12-14T07:20:32;92870.84;;;6.00;66.38
76086;BME280;64791;0.000;0.000;2023-12-14T07:22:58;92867.78;;;6.11;66.65
76086;BME280;64791;0.000;0.000;2023-12-14T07:25:24;92866.91;;;6.24;66.04
76086;BME280;64791;0.000;0.000;2023-12-14T07:27:50;92868.59;;;6.34;65.71
76086;BME280;64791;0.000;0.000;2023-12-14T07:30:16;92881.72;;;6.43;65.53
76086;BME280;64791;0.000;0.000;2023-12-14T07:32:42;92887.78;;;6.49;65.18
76086;BME280;64791;0.000;0.000;2023-12-14T07:35:08;92871.53;;;6.59;65.47
76086;BME280;64791;0.000;0.000;2023-12-14T07:37:34;92897.09;;;6.69;65.17
76086;BME280;64791;0.000;0.000;2023-12-14T07:39:59;92902.59;;;6.77;65.02
76086;BME280;64791;0.000;0.000;2023-12-14T07:42:25;92895.84;;;6.85;64.95
76086;BME280;64791;0.000;0.000;2023-12-14T07:44:51;92876.28;;;6.96;64.76
76086;BME280;64791;0.000;0.000;2023-12-14T07:47:19;92891.63;;;7.07;64.46
76086;BME280;64791;0.000;0.000;2023-12-14T07:49:45;92887.22;;;7.19;64.17
76086;BME280;64791;0.000;0.000;2023-12-14T07:52:11;92871.69;;;7.29;63.83
76086;BME280;64791;0.000;0.000;2023-12-14T07:54:38;92904.03;;;7.38;63.60
76086;BME280;64791;0.000;0.000;2023-12-14T07:57:04;92881.72;;;7.49;63.50
76086;BME280;64791;0.000;0.000;2023-12-14T07:59:29;92892.31;;;7.60;63.25
76086;BME280;64791;0.000;0.000;2023-12-14T08:01:55;92899.59;;;7.73;63.70
76086;BME280;64791;0.000;0.000;2023-12-14T08:04:21;92896.81;;;7.80;63.40
76086;BME280;64791;0.000;0.000;2023-12-14T08:06:46;92922.78;;;7.87;63.25
76086;BME280;64791;0.000;0.000;2023-12-14T08:09:13;92908.84;;;7.92;63.00
76086;BME280;64791;0.000;0.000;2023-12-14T08:11:38;92907.88;;;8.05;63.00
76086;BME280;64791;0.000;0.000;2023-12-14T08:14:04;92923.03;;;8.13;62.80
76086;BME280;64791;0.000;0.000;2023-12-14T08:16:30;92904.66;;;8.31;62.96
76086;BME280;64791;0.000;0.000;2023-12-14T08:18:56;92914.00;;;8.60;62.71
76086;BME280;64791;0.000;0.000;2023-12-14T08:21:22;92920.63;;;8.89;61.41
76086;BME280;64791;0.000;0.000;2023-12-14T08:23:48;92903.78;;;9.10;61.00
76086;BME280;64791;0.000;0.000;2023-12-14T08:26:14;92906.38;;;9.33;60.31
76086;BME280;64791;0.000;0.000;2023-12-14T08:28:40;92885.66;;;9.49;59.98
76086;BME280;64791;0.000;0.000;2023-12-14T08:31:06;92899.53;;;9.58;59.77
76086;BME280;64791;0.000;0.000;2023-12-14T08:33:31;92918.72;;;9.66;59.77
76086;BME280;64791;0.000;0.000;2023-12-14T08:35:57;92904.88;;;9.73;60.06
76086;BME280;64791;0.000;0.000;2023-12-14T08:38:22;92900.97;;;9.76;59.53
76086;BME280;64791;0.000;0.000;2023-12-14T08:40:48;92897.66;;;9.78;59.72
76086;BME280;64791;0.000;0.000;2023-12-14T08:43:14;92909.41;;;9.78;60.03
76086;BME280;64791;0.000;0.000;2023-12-14T08:45:40;92920.03;;;9.82;59.88
76086;BME280;64791;0.000;0.000;2023-12-14T08:48:06;92909.50;;;9.88;59.86
76086;BME280;64791;0.000;0.000;2023-12-14T08:50:31;92905.94;;;9.95;59.72
76086;BME280;64791;0.000;0.000;2023-12-14T08:52:57;92915.91;;;10.08;59.55
76086;BME280;64791;0.000;0.000;2023-12-14T08:55:26;92912.81;;;10.21;59.36
76086;BME280;64791;0.000;0.000;2023-12-14T08:57:52;92899.22;;;10.32;59.51
76086;BME280;64791;0.000;0.000;2023-12-14T09:00:18;92887.53;;;10.41;59.25
76086;BME280;64791;0.000;0.000;2023-12-14T09:02:44;92890.78;;;10.47;59.15
76086;BME280;64791;0.000;0.000;2023-12-14T09:05:14;92907.53;;;10.59;59.20
76086;BME280;64791;0.000;0.000;2023-12-14T09:07:42;92908.41;;;10.79;58.96
76086;BME280;64791;0.000;0.000;2023-12-14T09:10:07;92907.16;;;10.99;58.75
76086;BME280;64791;0.000;0.000;2023-12-14T09:12:34;92917.28;;;11.23;58.32
76086;BME280;64791;0.000;0.000;2023-12-14T09:15:00;92907.63;;;11.51;57.87
76086;BME280;64791;0.000;0.000;2023-12-14T09:17:25;92915.69;;;11.75;57.26
76086;BME280;64791;0.000;0.000;2023-12-14T09:19:52;92914.09;;;12.01;57.02
76086;BME280;64791;0.000;0.000;2023-12-14T09:22:17;92901.91;;;12.33;56.74
76086;BME280;64791;0.000;0.000;2023-12-14T09:24:44;92894.00;;;12.58;55.73
76086;BME280;64791;0.000;0.000;2023-12-14T09:27:10;92887.66;;;12.86;55.74
76086;BME280;64791;0.000;0.000;2023-12-14T09:29:35;92874.34;;;13.04;54.80
76086;BME280;64791;0.000;0.000;2023-12-14T09:32:01;92876.31;;;13.22;55.08
76086;BME280;64791;0.000;0.000;2023-12-14T09:34:27;92867.66;;;13.37;54.68
76086;BME280;64791;0.000;0.000;2023-12-14T09:36:52;92867.34;;;13.43;54.47
76086;BME280;64791;0.000;0.000;2023-12-14T09:39:18;92880.75;;;13.46;54.41
76086;BME280;64791;0.000;0.000;2023-12-14T09:41:46;92884.50;;;13.51;54.67
76086;BME280;64791;0.000;0.000;2023-12-14T09:44:13;92891.75;;;13.56;54.58
76086;BME280;64791;0.000;0.000;2023-12-14T09:46:39;92881.22;;;13.64;54.20
76086;BME280;64791;0.000;0.000;2023-12-14T09:49:07;92900.41;;;13.72;54.43
76086;BME280;64791;0.000;0.000;2023-12-14T09:51:33;92894.09;;;13.81;54.68
76086;BME280;64791;0.000;0.000;2023-12-14T09:53:59;92908.59;;;13.91;54.24
76086;BME280;64791;0.000;0.000;2023-12-14T09:56:25;92913.25;;;13.98;54.06
76086;BME280;64791;0.000;0.000;2023-12-14T09:58:51;92905.78;;;14.00;53.76
76086;BME280;64791;0.000;0.000;2023-12-14T10:01:27;92907.97;;;14.02;54.02
76086;BME280;64791;0.000;0.000;2023-12-14T10:04:09;92913.31;;;14.09;54.00
76086;BME280;64791;0.000;0.000;2023-12-14T10:06:35;92909.16;;;14.20;53.89
76086;BME280;64791;0.000;0.000;2023-12-14T10:09:01;92916.81;;;14.31;53.76
76086;BME280;64791;0.000;0.000;2023-12-14T10:11:26;92914.53;;;14.39;53.66
76086;BME280;64791;0.000;0.000;2023-12-14T10:13:52;92907.78;;;14.42;53.40
76086;BME280;64791;0.000;0.000;2023-12-14T10:16:31;92925.91;;;14.43;53.40
76086;BME280;64791;0.000;0.000;2023-12-14T10:18:57;92905.88;;;14.45;53.65
76086;BME280;64791;0.000;0.000;2023-12-14T10:21:24;92911.44;;;14.45;53.73
76086;BME280;64791;0.000;0.000;2023-12-14T10:23:50;92907.47;;;14.48;53.63
76086;BME280;64791;0.000;0.000;2023-12-14T10:26:15;92925.69;;;14.51;53.76
76086;BME280;64791;0.000;0.000;2023-12-14T10:28:42;92903.63;;;14.53;53.37
76086;BME280;64791;0.000;0.000;2023-12-14T10:31:08;92913.53;;;14.56;53.43
76086;BME280;64791;0.000;0.000;2023-12-14T10:33:35;92917.91;;;14.59;53.29
76086;BME280;64791;0.000;0.000;2023-12-14T10:36:01;92908.97;;;14.60;53.39
76086;BME280;64791;0.000;0.000;2023-12-14T10:38:28;92918.72;;;14.61;53.34
76086;BME280;64791;0.000;0.000;2023-12-14T10:40:54;92919.47;;;14.62;53.57
76086;BME280;64791;0.000;0.000;2023-12-14T10:43:21;92909.09;;;14.62;53.37
76086;BME280;64791;0.000;0.000;2023-12-14T10:45:47;92935.53;;;14.63;53.29
76086;BME280;64791;0.000;0.000;2023-12-14T10:48:17;92919.59;;;14.64;53.22
76086;BME280;64791;0.000;0.000;2023-12-14T10:50:45;92916.81;;;14.64;53.33
76086;BME280;64791;0.000;0.000;2023-12-14T10:53:11;92913.19;;;14.61;52.97
76086;BME280;64791;0.000;0.000;2023-12-14T10:55:38;92928.41;;;14.60;53.29
76086;BME280;64791;0.000;0.000;2023-12-14T10:58:05;92939.50;;;14.60;53.53
76086;BME280;64791;0.000;0.000;2023-12-14T11:00:33;92955.53;;;14.62;53.53
76086;BME280;64791;0.000;0.000;2023-12-14T11:02:58;92954.97;;;14.63;53.38
76086;BME280;64791;0.000;0.000;2023-12-14T11:05:26;92971.75;;;14.65;53.29
76086;BME280;64791;0.000;0.000;2023-12-14T11:07:55;92976.56;;;14.65;53.30
76086;BME280;64791;0.000;0.000;2023-12-14T11:10:23;92975.81;;;14.64;53.29
76086;BME280;64791;0.000;0.000;2023-12-14T11:12:56;92979.34;;;14.65;53.27
76086;BME280;64791;0.000;0.000;2023-12-14T11:15:25;92994.41;;;14.62;53.64
76086;BME280;64791;0.000;0.000;2023-12-14T11:23:17;93005.25;;;14.58;53.40
76086;BME280;64791;0.000;0.000;2023-12-14T11:25:43;93018.38;;;14.57;53.30
76086;BME280;64791;0.000;0.000;2023-12-14T11:28:09;92997.25;;;14.52;53.45
76086;BME280;64791;0.000;0.000;2023-12-14T11:30:36;93025.19;;;14.45;53.80
76086;BME280;64791;0.000;0.000;2023-12-14T11:33:02;93010.91;;;14.38;53.64
76086;BME280;64791;0.000;0.000;2023-12-14T11:35:28;93042.59;;;14.35;53.81
76086;BME280;64791;0.000;0.000;2023-12-14T11:37:55;93029.19;;;14.32;53.83
76086;BME280;64791;0.000;0.000;2023-12-14T11:40:23;93017.22;;;14.29;53.87
76086;BME280;64791;0.000;0.000;2023-12-14T11:43:04;93026.88;;;14.28;53.67
76086;BME280;64791;0.000;0.000;2023-12-14T11:45:37;93030.97;;;14.27;54.02
76086;BME280;64791;0.000;0.000;2023-12-14T11:48:03;93026.03;;;14.26;53.76
76086;BME280;64791;0.000;0.000;2023-12-14T11:50:31;93029.66;;;14.28;53.64
76086;BME280;64791;0.000;0.000;2023-12-14T11:52:57;93025.63;;;14.20;53.82
76086;BME280;64791;0.000;0.000;2023-12-14T11:55:23;93027.13;;;14.11;54.22
76086;BME280;64791;0.000;0.000;2023-12-14T11:57:49;93028.91;;;14.07;54.05
76086;BME280;64791;0.000;0.000;2023-12-14T12:00:14;93036.09;;;14.00;54.16
76086;BME280;64791;0.000;0.000;2023-12-14T12:02:40;93028.22;;;13.97;54.46
76086;BME280;64791;0.000;0.000;2023-12-14T12:05:06;93038.91;;;13.91;54.54
76086;BME280;64791;0.000;0.000;2023-12-14T12:07:32;93041.66;;;13.91;54.32
76086;BME280;64791;0.000;0.000;2023-12-14T12:09:58;93052.63;;;13.89;54.61
76086;BME280;64791;0.000;0.000;2023-12-14T12:12:24;93047.22;;;13.91;54.44
76086;BME280;64791;0.000;0.000;2023-12-14T12:14:50;93069.78;;;13.97;54.36
76086;BME280;64791;0.000;0.000;2023-12-14T12:17:18;93049.97;;;13.91;54.23
76086;BME280;64791;0.000;0.000;2023-12-14T12:19:47;93070.44;;;13.86;54.21
76086;BME280;64791;0.000;0.000;2023-12-14T12:22:13;93052.81;;;13.81;54.12
76086;BME280;64791;0.000;0.000;2023-12-14T12:24:39;93073.25;;;13.76;53.94
76086;BME280;64791;0.000;0.000;2023-12-14T12:27:05;93067.56;;;13.74;54.14
76086;BME280;64791;0.000;0.000;2023-12-14T12:29:30;93069.47;;;13.72;54.24
76086;BME280;64791;0.000;0.000;2023-12-14T12:31:56;93070.34;;;13.74;54.21
76086;BME280;64791;0.000;0.000;2023-12-14T12:34:22;93069.78;;;13.66;54.00
76086;BME280;64791;0.000;0.000;2023-12-14T12:36:48;93064.38;;;13.68;53.82
76086;BME280;64791;0.000;0.000;2023-12-14T12:39:13;93061.00;;;13.70;53.78
76086;BME280;64791;0.000;0.000;2023-12-14T12:41:39;93074.88;;;13.70;53.75
76086;BME280;64791;0.000;0.000;2023-12-14T12:44:05;93064.38;;;13.68;53.96
76086;BME280;64791;0.000;0.000;2023-12-14T12:46:33;93068.31;;;13.65;54.00
76086;BME280;64791;0.000;0.000;2023-12-14T12:49:00;93069.22;;;13.58;53.89
76086;BME280;64791;0.000;0.000;2023-12-14T12:51:26;93065.00;;;13.57;53.78
76086;BME280;64791;0.000;0.000;2023-12-14T12:53:53;93062.34;;;13.59;53.54
76086;BME280;64791;0.000;0.000;2023-12-14T12:56:19;93062.97;;;13.57;53.63
76086;BME280;64791;0.000;0.000;2023-12-14T12:58:45;93067.31;;;13.60;53.45
76086;BME280;64791;0.000;0.000;2023-12-14T13:01:10;93068.09;;;13.51;53.77
76086;BME280;64791;0.000;0.000;2023-12-14T13:03:36;93072.00;;;13.48;53.55
76086;BME280;64791;0.000;0.000;2023-12-14T13:06:02;93077.13;;;13.42;53.75
76086;BME280;64791;0.000;0.000;2023-12-14T13:08:28;93068.25;;;13.34;54.08
76086;BME280;64791;0.000;0.000;2023-12-14T13:10:54;93078.16;;;13.28;54.14
76086;BME280;64791;0.000;0.000;2023-12-14T13:13:19;93072.47;;;13.16;54.33
76086;BME280;64791;0.000;0.000;2023-12-14T13:15:45;93077.59;;;13.10;54.46
76086;BME280;64791;0.000;0.000;2023-12-14T13:18:10;93084.00;;;13.03;54.70